地図

経路データ

SID SEASON NUMBER BASIN SUBBASIN NAME ISO_TIME NATURE LAT LON WMO_WIND WMO_PRES WMO_AGENCY TRACK_TYPE DIST2LAND LANDFALL IFLAG USA_AGENCY USA_ATCF_ID USA_LAT USA_LON USA_RECORD USA_STATUS USA_WIND USA_PRES USA_SSHS USA_R34_NE USA_R34_SE USA_R34_SW USA_R34_NW USA_R50_NE USA_R50_SE USA_R50_SW USA_R50_NW USA_R64_NE USA_R64_SE USA_R64_SW USA_R64_NW USA_POCI USA_ROCI USA_RMW USA_EYE TOKYO_LAT TOKYO_LON TOKYO_GRADE TOKYO_WIND TOKYO_PRES TOKYO_R50_DIR TOKYO_R50_LONG TOKYO_R50_SHORT TOKYO_R30_DIR TOKYO_R30_LONG TOKYO_R30_SHORT TOKYO_LAND CMA_LAT CMA_LON CMA_CAT CMA_WIND CMA_PRES HKO_LAT HKO_LON HKO_CAT HKO_WIND HKO_PRES NEWDELHI_LAT NEWDELHI_LON NEWDELHI_GRADE NEWDELHI_WIND NEWDELHI_PRES NEWDELHI_CI NEWDELHI_DP NEWDELHI_POCI REUNION_LAT REUNION_LON REUNION_TYPE REUNION_WIND REUNION_PRES REUNION_TNUM REUNION_CI REUNION_RMW REUNION_R34_NE REUNION_R34_SE REUNION_R34_SW REUNION_R34_NW REUNION_R50_NE REUNION_R50_SE REUNION_R50_SW REUNION_R50_NW REUNION_R64_NE REUNION_R64_SE REUNION_R64_SW REUNION_R64_NW BOM_LAT BOM_LON BOM_TYPE BOM_WIND BOM_PRES BOM_TNUM BOM_CI BOM_RMW BOM_R34_NE BOM_R34_SE BOM_R34_SW BOM_R34_NW BOM_R50_NE BOM_R50_SE BOM_R50_SW BOM_R50_NW BOM_R64_NE BOM_R64_SE BOM_R64_SW BOM_R64_NW BOM_ROCI BOM_POCI BOM_EYE BOM_POS_METHOD BOM_PRES_METHOD NADI_LAT NADI_LON NADI_CAT NADI_WIND NADI_PRES WELLINGTON_LAT WELLINGTON_LON WELLINGTON_WIND WELLINGTON_PRES DS824_LAT DS824_LON DS824_STAGE DS824_WIND DS824_PRES TD9636_LAT TD9636_LON TD9636_STAGE TD9636_WIND TD9636_PRES TD9635_LAT TD9635_LON TD9635_WIND TD9635_PRES TD9635_ROCI NEUMANN_LAT NEUMANN_LON NEUMANN_CLASS NEUMANN_WIND NEUMANN_PRES MLC_LAT MLC_LON MLC_CLASS MLC_WIND MLC_PRES USA_GUST BOM_GUST BOM_GUST_PER REUNION_GUST REUNION_GUST_PER USA_SEAHGT USA_SEARAD_NE USA_SEARAD_SE USA_SEARAD_SW USA_SEARAD_NW STORM_SPEED STORM_DIR
1978283N06153 1978 106 WP MM NOT_NAMED 1978-10-10 00:00:00 TS 5.60000 153.400 main 970 967 O________OO___ jtwc_wp WP261978 5.60000 153.400 15 -1 5.60000 153.400 TC 15 5.60000 153.400 1 15 9 297
1978283N06153 1978 106 WP MM NOT_NAMED 1978-10-10 03:00:00 TS 5.79801 153.004 main 980 978 P________PP___ WP261978 5.80007 152.998 15 -1 5.80007 152.998 TC 15 5.79391 153.017 1 15 9 297
1978283N06153 1978 106 WP MM NOT_NAMED 1978-10-10 06:00:00 TS 5.99672 152.609 main 993 991 O________OP___ jtwc_wp WP261978 6.00000 152.600 15 -1 6.00000 152.600 TC 15 5.99016 152.628 1 15 9 297
1978283N06153 1978 106 WP MM NOT_NAMED 1978-10-10 09:00:00 TS 6.19708 152.213 main 1007 1006 P________PP___ WP261978 6.19995 152.207 15 -1 6.19995 152.207 TC 15 6.19134 152.224 1 15 8 298
1978283N06153 1978 106 WP MM NOT_NAMED 1978-10-10 12:00:00 TS 6.36923 151.892 main 1025 1023 O_O______OO___ jtwc_wp WP261978 6.40000 151.800 15 -1 6.00000 153.000 0 1006 6.40000 151.800 TC 15 6.40000 151.800 1 15 8 296
1978283N06153 1978 106 WP MM NOT_NAMED 1978-10-10 15:00:00 TS 6.55258 151.487 main 1044 1043 P_P______PP___ WP261978 6.59246 151.365 15 -1 6.26271 152.250 0 1006 6.59246 151.365 TC 15 6.61775 151.351 1 15 10 294
1978283N06153 1978 106 WP MM NOT_NAMED 1978-10-10 18:00:00 TS 6.75131 151.015 main 1064 1064 O_O______OP___ jtwc_wp WP261978 6.80000 150.900 15 -1 6.50000 151.500 0 19 1006 6.80000 150.900 TC 15 6.84240 150.880 1 15 11 293
1978283N06153 1978 106 WP MM NOT_NAMED 1978-10-10 21:00:00 TS 6.97079 150.490 main 1076 1069 P_P______PP___ WP261978 7.04997 150.408 15 -1 6.71239 150.750 0 19 1006 7.04997 150.408 TC 15 7.07084 150.394 1 15 12 294
1978283N06153 1978 106 WP MM NOT_NAMED 1978-10-11 00:00:00 TS 7.22500 149.925 main 1078 1078 O_O______OO___ jtwc_wp WP261978 7.30000 149.900 15 -1 7.00000 150.000 0 19 1006 7.30000 149.900 TC 15 7.30000 149.900 1 15 12 295
1978283N06153 1978 106 WP MM NOT_NAMED 1978-10-11 03:00:00 TS 7.50275 149.357 main 1098 1096 P_P______PP___ WP261978 7.49994 149.400 15 -1 7.47005 149.213 0 21 1005 7.49994 149.400 TC 15 7.54105 149.415 1 15 13 297
1978283N06153 1978 106 WP MM NOT_NAMED 1978-10-11 06:00:00 TS 7.79493 148.806 main 1120 1118 O_O______OP___ jtwc_wp WP261978 7.70000 148.900 15 -1 8.00000 148.500 1 23 1004 7.70000 148.900 TC 15 7.77970 148.922 1 15 12 300
1978283N06153 1978 106 WP MM NOT_NAMED 1978-10-11 09:00:00 TS 8.10319 148.314 main 1147 1147 P_P______PP___ WP261978 7.95744 148.400 15 -1 8.49438 148.037 1 23 1004 7.95744 148.400 TC 15 8.00351 148.418 1 15 12 300
1978283N06153 1978 106 WP MM NOT_NAMED 1978-10-11 12:00:00 TS 8.37500 147.800 main 1177 1176 O_O______OO___ jtwc_wp WP261978 8.20000 147.900 15 -1 8.90000 147.500 1 23 1004 8.20000 147.900 TC 15 8.20000 147.900 1 15 12 292
1978283N06153 1978 106 WP MM NOT_NAMED 1978-10-11 15:00:00 TS 8.54931 147.192 main 1187 1187 P_P______PP___ WP261978 8.37238 147.415 15 -1 9.11551 146.537 1 26 1004 8.37238 147.415 TC 15 8.33697 147.400 1 15 13 284
1978283N06153 1978 106 WP MM NOT_NAMED 1978-10-11 18:00:00 TS 8.68729 146.545 main 1210 1210 O_O______OP___ jtwc_wp WP261978 8.50000 146.900 15 -1 9.30000 145.500 1 29 1004 8.50000 146.900 TC 15 8.44917 146.882 1 15 13 284
1978283N06153 1978 106 WP MM NOT_NAMED 1978-10-11 21:00:00 TS 8.87541 145.884 main 1235 1235 P_P______PP___ WP261978 8.59240 146.330 15 -1 9.75506 144.555 1 29 1004 8.59240 146.330 TC 15 8.56181 146.322 1 15 13 285
1978283N06153 1978 106 WP MM NOT_NAMED 1978-10-12 00:00:00 TS 9.02500 145.275 main 1252 1252 O_O______OO___ jtwc_wp WP261978 8.70000 145.700 15 -1 10.0000 144.000 1 29 1004 8.70000 145.700 TC 15 8.70000 145.700 1 15 10 280
1978283N06153 1978 106 WP MM NOT_NAMED 1978-10-12 03:00:00 TS 9.05584 144.847 main 1270 1270 P_P______PP___ WP261978 8.87731 145.037 15 -1 9.55232 144.308 1 29 1004 8.87731 145.037 TC 15 8.91642 145.006 1 15 9 274
1978283N06153 1978 106 WP MM NOT_NAMED 1978-10-12 06:00:00 TS 9.08930 144.362 main 1278 1278 O_O______OP___ jtwc_wp WP261978 9.10000 144.300 15 -1 9.00000 144.600 1 29 1004 9.10000 144.300 TC 15 9.15721 144.248 1 15 13 279
1978283N06153 1978 106 WP MM NOT_NAMED 1978-10-12 09:00:00 TS 9.25295 143.599 main 1320 1320 P_P______PP___ WP261978 9.36489 143.480 15 -1 8.88765 143.995 1 29 1004 9.36489 143.480 TC 15 9.39436 143.440 1 15 17 282
1978283N06153 1978 106 WP MM NOT_NAMED 1978-10-12 12:00:00 TS 9.45000 142.700 main 1340 1316 O_O______OO___ jtwc_wp WP261978 9.60000 142.600 15 -1 9.00000 143.000 1 29 1004 9.60000 142.600 TC 15 9.60000 142.600 1 15 18 281
1978283N06153 1978 106 WP MM NOT_NAMED 1978-10-12 15:00:00 TS 9.59420 141.778 main 1316 1300 P_P______PP___ WP261978 9.72238 141.700 15 -1 9.22024 141.993 1 26 1004 9.72238 141.700 TC 15 9.71178 141.721 1 15 18 279
1978283N06153 1978 106 WP MM NOT_NAMED 1978-10-12 18:00:00 TS 9.72322 140.855 main 1300 1271 O_O______OP___ jtwc_wp WP261978 9.80000 140.800 15 -1 9.50000 141.000 1 23 1004 9.80000 140.800 TC 15 9.79290 140.819 1 15 18 277
1978283N06153 1978 106 WP MM NOT_NAMED 1978-10-12 21:00:00 TS 9.82168 140.000 main 1271 1256 P_P______PP___ WP261978 9.87734 139.927 15 -1 9.65457 140.212 1 23 1004 9.87734 139.927 TC 15 9.87747 139.933 1 15 17 279
1978283N06153 1978 106 WP MM NOT_NAMED 1978-10-13 00:00:00 TS 9.97500 139.200 main 1263 1256 O_O______OO___ jtwc_wp WP261978 10.0000 139.100 15 -1 9.90000 139.500 1 23 1004 10.0000 139.100 TC 15 10.0000 139.100 1 15 16 286
1978283N06153 1978 106 WP MM NOT_NAMED 1978-10-13 03:00:00 TS 10.2598 138.428 main 1270 1261 P_P______PP___ WP261978 10.2274 138.313 15 -1 10.3823 138.750 1 23 1004 10.2274 138.313 TC 15 10.2022 138.335 1 15 16 293
1978283N06153 1978 106 WP MM NOT_NAMED 1978-10-13 06:00:00 TS 10.6117 137.708 main 1261 1207 O_O______OP___ jtwc_wp WP261978 10.5000 137.600 15 -1 11.0000 138.000 1 23 1004 10.5000 137.600 TC 15 10.4468 137.630 1 15 16 298
1978283N06153 1978 106 WP MM NOT_NAMED 1978-10-13 09:00:00 TS 10.9894 137.033 main 1198 1152 P_P______PP___ WP261978 10.7499 136.955 15 -1 11.7399 137.236 1 23 1005 10.7499 136.955 TC 15 10.7180 136.985 1 15 15 300
1978283N06153 1978 106 WP MM NOT_NAMED 1978-10-13 12:00:00 TS 11.3250 136.425 main 1141 1092 O_O______OO___ jtwc_wp WP261978 11.0000 136.400 15 -1 12.3000 136.500 1 23 1006 11.0000 136.400 TC 15 11.0000 136.400 1 15 12 296
1978283N06153 1978 106 WP MM NOT_NAMED 1978-10-13 15:00:00 TS 11.5285 135.891 main 1092 1044 P_P______PP___ WP261978 11.2423 135.935 15 -1 12.3623 135.827 1 23 1006 11.2423 135.935 TC 15 11.2670 135.867 1 16 11 290
1978283N06153 1978 106 WP MM NOT_NAMED 1978-10-13 18:00:00 TS 11.6854 135.397 main 1044 997 O_O______OP___ jtwc_wp WP261978 11.5000 135.500 15 -1 12.2000 135.200 1 23 1006 11.5000 135.500 TC 15 11.5415 135.389 1 17 10 289
1978283N06153 1978 106 WP MM NOT_NAMED 1978-10-13 21:00:00 TS 11.8706 134.895 main 997 945 P_P______PP___ WP261978 11.7925 135.000 17 -1 12.0770 134.637 1 23 1006 11.7925 135.000 TC 17 11.8203 134.942 1 18 11 291
1978283N06153 1978 106 WP MM NOT_NAMED 1978-10-14 00:00:00 TS 12.0750 134.375 main 945 883 O_O______OO___ jtwc_wp WP261978 12.1000 134.500 20 -1 12.0000 134.000 1 23 1006 12.1000 134.500 TC 20 12.1000 134.500 1 20 12 293
1978283N06153 1978 106 WP MM NOT_NAMED 1978-10-14 03:00:00 TS 12.3151 133.812 main 883 834 P_P______PP___ WP261978 12.4073 134.050 20 -1 12.0627 133.138 1 23 1006 12.4073 134.050 TC 20 12.3831 134.009 1 20 12 294
1978283N06153 1978 106 WP MM NOT_NAMED 1978-10-14 06:00:00 TS 12.5662 133.230 main 825 767 O_O______OP___ jtwc_wp WP261978 12.7000 133.600 20 -1 12.2000 132.200 1 23 1006 12.7000 133.600 TC 20 12.6650 133.520 1 20 13 292
1978283N06153 1978 106 WP MM NOT_NAMED 1978-10-14 09:00:00 TS 12.7937 132.613 main 767 721 P_P______PP___ WP261978 12.9575 133.092 20 -1 12.3204 131.223 1 23 1006 12.9575 133.092 TC 20 12.9394 133.046 1 20 12 292
1978283N06153 1978 106 WP MM NOT_NAMED 1978-10-14 12:00:00 TS 13.0250 132.075 main 721 692 O_O______OO___ jtwc_wp WP261978 13.2000 132.600 20 -1 12.5000 130.500 1 23 1006 13.2000 132.600 TC 20 13.2000 132.600 1 20 10 304
1978283N06153 1978 106 WP MM NOT_NAMED 1978-10-14 15:00:00 TS 13.3660 131.737 main 685 669 P_P______PP___ WP261978 13.4574 132.177 20 -1 12.7620 130.292 1 23 1006 13.4574 132.177 TC 20 13.4392 132.172 1 20 9 319
1978283N06153 1978 106 WP MM NOT_NAMED 1978-10-14 18:00:00 TS 13.6811 131.483 main 671 653 O_OO_____OP___ jtwc_wp WP261978 13.7000 131.800 20 -1 13.1000 130.400 1 23 1006 14.8000 131.800 TD 25 1006 13.7000 131.800 TC 20 13.6648 131.775 1 20 8 321
1978283N06153 1978 106 WP MM NOT_NAMED 1978-10-14 21:00:00 TS 13.9634 131.240 main 649 636 P_PP_____PP___ WP261978 13.9074 131.435 20 -1 13.4850 130.562 1 23 1006 14.8627 131.398 TD 25 1006 13.9074 131.435 TC 20 13.8830 131.415 1 20 7 320
1978283N06153 1978 106 WP MM NOT_NAMED 1978-10-15 00:00:00 TS 14.2200 131.020 main 636 624 O_OO_____OO___ jtwc_wp WP261978 14.1000 131.100 20 -1 13.9000 130.800 1 23 1006 14.9000 131.000 TD 25 1007 14.1000 131.100 TC 20 14.1000 131.100 1 20 6 318
1978283N06153 1978 106 WP MM NOT_NAMED 1978-10-15 03:00:00 TS 14.4294 130.804 main 624 613 P_PP_____PP___ WP261978 14.2925 130.770 20 -1 14.3375 131.075 1 23 1006 14.8999 130.607 TD 25 1007 14.2925 130.770 TC 20 14.3248 130.799 1 20 6 315
1978283N06153 1978 106 WP MM NOT_NAMED 1978-10-15 06:00:00 TS 14.6300 130.589 main 613 604 O_OO_____OP___ jtwc_wp WP261978 14.5000 130.500 20 -1 14.7000 131.200 1 23 1006 14.9000 130.200 TD 25 1007 14.5000 130.500 TC 20 14.5498 130.545 1 20 6 313
1978283N06153 1978 106 WP MM NOT_NAMED 1978-10-15 09:00:00 TS 14.8189 130.369 main 604 591 P_PP_____PP___ WP261978 14.7500 130.305 20 -1 14.9025 130.983 1 21 1006 14.9377 129.760 TD 25 1007 14.7500 130.305 TC 20 14.7749 130.343 1 20 5 314
1978283N06153 1978 106 WP MM NOT_NAMED 1978-10-15 12:00:00 TS 15.0000 130.189 main 597 593 O_OO_____OO___ jtwc_wp WP261978 15.0000 130.200 20 -1 15.0000 130.600 0 19 1006 15.0000 129.300 TD 25 1007 15.0000 130.200 TC 20 15.0000 130.200 1 20 4 324
1978283N06153 1978 106 WP MM NOT_NAMED 1978-10-15 15:00:00 TS 15.1668 130.105 main 599 599 P_P______PP___ WP261978 15.2000 130.185 20 -1 15.0800 130.250 0 19 1006 TD 15.2000 130.185 TC 20 15.2289 130.117 1 20 4 345
1978283N06153 1978 106 WP MM NOT_NAMED 1978-10-15 18:00:00 TS 15.3393 130.097 main 606 603 O_O______OP___ jtwc_wp WP261978 15.4000 130.200 20 -1 15.1000 129.900 0 19 1006 15.4000 130.200 TC 20 15.4573 130.090 1 20 4 342
1978283N06153 1978 106 WP MM NOT_NAMED 1978-10-15 21:00:00 TS 15.5155 129.991 main 610 608 P_P______PP___ WP261978 15.6500 130.150 20 -1 15.0800 129.570 0 19 1006 15.6500 130.150 TC 20 15.6821 130.092 1 20 4 331
1978283N06153 1978 106 WP MM NOT_NAMED 1978-10-16 00:00:00 TS 15.6750 129.900 main 615 615 O_O______OO___ jtwc_wp WP261978 15.9000 130.100 20 -1 15.0000 129.300 0 19 1006 15.9000 130.100 TC 20 15.9000 130.100 1 20 3 336
1978283N06153 1978 106 WP MM NOT_NAMED 1978-10-16 03:00:00 TS 15.7991 129.857 main 622 614 P_P______PP___ WP261978 16.1075 130.100 20 -1 14.8724 129.135 0 1006 16.1075 130.100 TC 20 16.1088 130.093 1 18 2 314
1978283N06153 1978 106 WP MM NOT_NAMED 1978-10-16 06:00:00 TS 15.8100 129.755 main 614 591 O_O______OP___ jtwc_wp WP261978 16.3000 130.100 20 -1 14.7000 129.000 0 1006 16.3000 130.100 TC 20 16.3101 130.070 1 17 3 253
1978283N06153 1978 106 WP MM NOT_NAMED 1978-10-16 09:00:00 TS 15.7122 129.562 main 591 536 P_P______PP___ WP261978 16.4975 130.063 17 -1 14.5300 128.823 0 1006 16.4975 130.063 TC 17 16.5063 130.038 1 16 7 228
1978283N06153 1978 106 WP MM NOT_NAMED 1978-10-16 12:00:00 TS 15.3286 129.200 main 529 364 O_O______OO___ jtwc_wp WP261978 16.7000 130.000 15 -1 14.3000 128.600 0 1006 16.7000 130.000 TC 15 16.7000 130.000 1 15 21 215
1978283N06153 1978 106 WP MM NOT_NAMED 1978-10-16 15:00:00 TS 13.9800 128.307 main 364 313 __P___________ WP261978 -1 13.9800 128.307 0 1006 TC 1 21 214
1978283N06153 1978 106 WP MM NOT_NAMED 1978-10-16 18:00:00 TS 13.6000 128.000 main 313 278 __O___________ -1 13.6000 128.000 0 1006 1 9 216
1978283N06153 1978 106 WP MM NOT_NAMED 1978-10-16 21:00:00 TS 13.2673 127.781 main 278 227 __P___________ -1 13.2673 127.781 0 1006 1 9 211
1978283N06153 1978 106 WP MM NOT_NAMED 1978-10-17 00:00:00 TS 12.8000 127.500 main 227 174 __O___________ -1 12.8000 127.500 0 1006 14 211
1978283N06153 1978 106 WP MM NOT_NAMED 1978-10-17 03:00:00 TS 12.0779 127.051 main 174 83 __P___________ -1 12.0779 127.051 0 1006 19 211
1978283N06153 1978 106 WP MM NOT_NAMED 1978-10-17 06:00:00 TS 11.2000 126.500 main 79 __O___________ -1 11.2000 126.500 0 1006 21 212

デジタル台風データ・検索

IBTrACS Databaseについて

本データベースは、米国NOAAが公開する1842年以降の世界の熱帯低気圧のベストトラックデータアーカイブInternational Best Track Archive for Climate Stewardship (IBTrACS)を、ウェブで閲覧しやすい形式に変換したものです。

最終更新日:2021-12-08